sensor_id;sensor_type;location;lat;lon;timestamp;pressure;altitude;pressure_sealevel;temperature;humidity
71621;BME280;59471;42.254;23.102;2022-12-20T00:00:55;97724.97;;;-0.28;72.38
71621;BME280;59471;42.254;23.102;2022-12-20T00:03:20;97737.06;;;-0.30;72.70
71621;BME280;59471;42.254;23.102;2022-12-20T00:05:46;97736.94;;;-0.27;72.45
71621;BME280;59471;42.254;23.102;2022-12-20T00:08:12;97737.19;;;-0.33;73.36
71621;BME280;59471;42.254;23.102;2022-12-20T00:10:42;97726.50;;;-0.24;73.57
71621;BME280;59471;42.254;23.102;2022-12-20T00:13:09;97726.50;;;-0.24;73.12
71621;BME280;59471;42.254;23.102;2022-12-20T00:15:35;97732.44;;;-0.21;72.03
71621;BME280;59471;42.254;23.102;2022-12-20T00:18:01;97729.47;;;-0.12;72.63
71621;BME280;59471;42.254;23.102;2022-12-20T00:20:27;97720.00;;;-0.12;73.13
71621;BME280;59471;42.254;23.102;2022-12-20T00:22:53;97727.72;;;-0.32;73.94
71621;BME280;59471;42.254;23.102;2022-12-20T00:25:19;97726.91;;;-0.33;73.39
71621;BME280;59471;42.254;23.102;2022-12-20T00:27:46;97720.22;;;-0.37;74.39
71621;BME280;59471;42.254;23.102;2022-12-20T00:30:12;97723.88;;;-0.22;73.99
71621;BME280;59471;42.254;23.102;2022-12-20T00:32:39;97728.44;;;-0.08;73.54
71621;BME280;59471;42.254;23.102;2022-12-20T00:35:05;97730.50;;;0.04;74.31
71621;BME280;59471;42.254;23.102;2022-12-20T00:37:31;97737.25;;;-0.14;74.87
71621;BME280;59471;42.254;23.102;2022-12-20T00:39:56;97741.84;;;-0.20;74.39
71621;BME280;59471;42.254;23.102;2022-12-20T00:42:22;97737.19;;;-0.33;74.88
71621;BME280;59471;42.254;23.102;2022-12-20T00:44:47;97746.69;;;-0.55;75.13
71621;BME280;59471;42.254;23.102;2022-12-20T00:47:13;97736.03;;;-0.46;75.60
71621;BME280;59471;42.254;23.102;2022-12-20T00:49:39;97734.00;;;-0.38;75.36
71621;BME280;59471;42.254;23.102;2022-12-20T00:52:05;97738.59;;;-0.26;75.67
71621;BME280;59471;42.254;23.102;2022-12-20T00:54:30;97730.75;;;-0.22;75.50
71621;BME280;59471;42.254;23.102;2022-12-20T00:56:56;97738.09;;;-0.13;74.98
71621;BME280;59471;42.254;23.102;2022-12-20T00:59:21;97734.75;;;-0.15;74.80
71621;BME280;59471;42.254;23.102;2022-12-20T01:01:47;97727.53;;;-0.48;75.61
71621;BME280;59471;42.254;23.102;2022-12-20T01:04:13;97725.19;;;-0.75;76.75
71621;BME280;59471;42.254;23.102;2022-12-20T01:06:39;97723.22;;;-0.48;75.96
71621;BME280;59471;42.254;23.102;2022-12-20T01:09:04;97728.97;;;-0.41;75.85
71621;BME280;59471;42.254;23.102;2022-12-20T01:11:32;97724.59;;;-1.03;77.02
71621;BME280;59471;42.254;23.102;2022-12-20T01:14:11;97719.56;;;-1.06;77.17
71621;BME280;59471;42.254;23.102;2022-12-20T01:16:41;97716.44;;;-0.93;77.08
71621;BME280;59471;42.254;23.102;2022-12-20T01:19:11;97717.38;;;-0.73;76.85
71621;BME280;59471;42.254;23.102;2022-12-20T01:21:38;97719.16;;;-0.53;75.89
71621;BME280;59471;42.254;23.102;2022-12-20T01:24:18;97715.72;;;-0.74;76.06
71621;BME280;59471;42.254;23.102;2022-12-20T01:26:45;97707.59;;;-0.85;77.13
71621;BME280;59471;42.254;23.102;2022-12-20T01:29:11;97699.34;;;-0.94;77.51
71621;BME280;59471;42.254;23.102;2022-12-20T01:31:38;97701.41;;;-0.59;76.17
71621;BME280;59471;42.254;23.102;2022-12-20T01:34:04;97698.72;;;-0.56;75.47
71621;BME280;59471;42.254;23.102;2022-12-20T01:36:34;97702.31;;;-0.40;75.75
71621;BME280;59471;42.254;23.102;2022-12-20T01:39:07;97698.03;;;-0.61;75.68
71621;BME280;59471;42.254;23.102;2022-12-20T01:41:36;97702.78;;;-0.73;76.50
71621;BME280;59471;42.254;23.102;2022-12-20T01:44:47;97694.06;;;-0.68;77.30
71621;BME280;59471;42.254;23.102;2022-12-20T01:46:50;97695.09;;;-0.52;76.62
71621;BME280;59471;42.254;23.102;2022-12-20T01:52:06;97684.38;;;-0.84;75.96
71621;BME280;59471;42.254;23.102;2022-12-20T01:54:42;97681.63;;;-0.79;76.91
71621;BME280;59471;42.254;23.102;2022-12-20T02:00:23;97676.97;;;-0.91;77.25
71621;BME280;59471;42.254;23.102;2022-12-20T02:02:49;97676.25;;;-0.95;76.88
71621;BME280;59471;42.254;23.102;2022-12-20T02:05:16;97681.50;;;-0.98;77.24
71621;BME280;59471;42.254;23.102;2022-12-20T02:07:48;97671.22;;;-0.98;76.35
71621;BME280;59471;42.254;23.102;2022-12-20T02:10:18;97682.09;;;-0.91;76.19
71621;BME280;59471;42.254;23.102;2022-12-20T02:12:46;97667.28;;;-0.85;74.01
71621;BME280;59471;42.254;23.102;2022-12-20T02:15:52;97684.00;;;-0.75;74.74
71621;BME280;59471;42.254;23.102;2022-12-20T02:18:26;97680.50;;;-0.72;74.62
71621;BME280;59471;42.254;23.102;2022-12-20T02:27:39;97677.69;;;-0.88;74.62
71621;BME280;59471;42.254;23.102;2022-12-20T02:30:11;97671.03;;;-0.72;73.85
71621;BME280;59471;42.254;23.102;2022-12-20T02:32:47;97670.63;;;-0.83;74.43
71621;BME280;59471;42.254;23.102;2022-12-20T02:35:22;97668.69;;;-0.78;75.68
71621;BME280;59471;42.254;23.102;2022-12-20T02:37:53;97678.38;;;-0.62;73.97
71621;BME280;59471;42.254;23.102;2022-12-20T02:40:29;97669.75;;;-0.61;73.81
71621;BME280;59471;42.254;23.102;2022-12-20T02:43:04;97664.41;;;-0.57;73.24
71621;BME280;59471;42.254;23.102;2022-12-20T02:45:56;97662.09;;;-0.63;73.84
71621;BME280;59471;42.254;23.102;2022-12-20T02:48:24;97663.03;;;-0.45;72.24
71621;BME280;59471;42.254;23.102;2022-12-20T02:50:53;97662.09;;;-0.63;72.88
71621;BME280;59471;42.254;23.102;2022-12-20T02:53:21;97668.34;;;-0.68;73.73
71621;BME280;59471;42.254;23.102;2022-12-20T02:55:53;97658.28;;;-0.75;72.97
71621;BME280;59471;42.254;23.102;2022-12-20T02:58:37;97661.25;;;-0.63;73.66
71621;BME280;59471;42.254;23.102;2022-12-20T03:01:17;97662.81;;;-0.59;73.33
71621;BME280;59471;42.254;23.102;2022-12-20T03:03:47;97663.56;;;-0.78;73.92
71621;BME280;59471;42.254;23.102;2022-12-20T03:06:13;97664.72;;;-0.64;73.56
71621;BME280;59471;42.254;23.102;2022-12-20T03:08:39;97658.34;;;-0.76;73.87
71621;BME280;59471;42.254;23.102;2022-12-20T03:11:04;97657.91;;;-0.65;73.88
71621;BME280;59471;42.254;23.102;2022-12-20T03:13:30;97656.19;;;-0.65;74.27
71621;BME280;59471;42.254;23.102;2022-12-20T03:15:55;97653.59;;;-0.44;73.29
71621;BME280;59471;42.254;23.102;2022-12-20T03:18:21;97650.69;;;-0.57;73.46
71621;BME280;59471;42.254;23.102;2022-12-20T03:20:46;97644.03;;;-0.41;73.37
71621;BME280;59471;42.254;23.102;2022-12-20T03:23:12;97645.69;;;-0.60;73.23
71621;BME280;59471;42.254;23.102;2022-12-20T03:25:37;97644.00;;;-0.82;73.54
71621;BME280;59471;42.254;23.102;2022-12-20T03:28:03;97643.34;;;-0.87;73.80
71621;BME280;59471;42.254;23.102;2022-12-20T03:30:29;97647.91;;;-0.94;73.37
71621;BME280;59471;42.254;23.102;2022-12-20T03:32:54;97641.03;;;-0.93;73.10
71621;BME280;59471;42.254;23.102;2022-12-20T03:35:20;97648.78;;;-1.15;73.60
71621;BME280;59471;42.254;23.102;2022-12-20T03:37:45;97652.22;;;-0.94;73.45
71621;BME280;59471;42.254;23.102;2022-12-20T03:40:11;97652.84;;;-0.89;73.16
71621;BME280;59471;42.254;23.102;2022-12-20T03:42:37;97654.91;;;-0.97;73.15
71621;BME280;59471;42.254;23.102;2022-12-20T03:45:03;97655.44;;;-0.89;73.18
71621;BME280;59471;42.254;23.102;2022-12-20T03:47:29;97654.63;;;-1.11;73.40
71621;BME280;59471;42.254;23.102;2022-12-20T03:49:55;97658.81;;;-1.09;74.10
71621;BME280;59471;42.254;23.102;2022-12-20T03:52:21;97641.13;;;-1.17;74.83
71621;BME280;59471;42.254;23.102;2022-12-20T03:54:46;97654.75;;;-1.14;75.18
71621;BME280;59471;42.254;23.102;2022-12-20T03:57:12;97648.34;;;-1.26;75.95
71621;BME280;59471;42.254;23.102;2022-12-20T03:59:38;97660.72;;;-1.14;75.74
71621;BME280;59471;42.254;23.102;2022-12-20T04:02:03;97654.38;;;-1.27;75.71
71621;BME280;59471;42.254;23.102;2022-12-20T04:04:29;97651.03;;;-1.07;75.12
71621;BME280;59471;42.254;23.102;2022-12-20T04:06:55;97643.81;;;-1.20;75.03
71621;BME280;59471;42.254;23.102;2022-12-20T04:09:20;97649.34;;;-1.08;75.77
71621;BME280;59471;42.254;23.102;2022-12-20T04:11:46;97652.13;;;-1.13;75.17
71621;BME280;59471;42.254;23.102;2022-12-20T04:14:12;97649.25;;;-1.49;75.94
71621;BME280;59471;42.254;23.102;2022-12-20T04:16:37;97643.94;;;-1.45;76.17
71621;BME280;59471;42.254;23.102;2022-12-20T04:19:03;97642.56;;;-1.53;76.03
71621;BME280;59471;42.254;23.102;2022-12-20T04:21:31;97649.00;;;-1.43;76.05
71621;BME280;59471;42.254;23.102;2022-12-20T04:23:59;97629.09;;;-1.60;75.72
71621;BME280;59471;42.254;23.102;2022-12-20T04:26:26;97628.38;;;-1.64;75.50
71621;BME280;59471;42.254;23.102;2022-12-20T04:28:52;97635.00;;;-1.58;76.06
71621;BME280;59471;42.254;23.102;2022-12-20T04:31:18;97641.84;;;-1.57;76.12
71621;BME280;59471;42.254;23.102;2022-12-20T04:33:44;97641.00;;;-1.57;75.88
71621;BME280;59471;42.254;23.102;2022-12-20T04:36:10;97639.88;;;-1.74;76.48
71621;BME280;59471;42.254;23.102;2022-12-20T04:38:36;97643.16;;;-1.92;76.63
71621;BME280;59471;42.254;23.102;2022-12-20T04:41:02;97635.91;;;-2.04;77.53
71621;BME280;59471;42.254;23.102;2022-12-20T04:43:27;97638.78;;;-1.90;76.68
71621;BME280;59471;42.254;23.102;2022-12-20T04:45:54;97636.00;;;-1.84;76.79
71621;BME280;59471;42.254;23.102;2022-12-20T04:48:21;97636.22;;;-2.14;77.35
71621;BME280;59471;42.254;23.102;2022-12-20T04:50:49;97628.03;;;-2.00;77.62
71621;BME280;59471;42.254;23.102;2022-12-20T04:53:15;97633.88;;;-2.20;78.32
71621;BME280;59471;42.254;23.102;2022-12-20T04:56:00;97635.09;;;-2.06;78.12
71621;BME280;59471;42.254;23.102;2022-12-20T04:58:26;97632.59;;;-1.84;77.76
71621;BME280;59471;42.254;23.102;2022-12-20T05:00:52;97625.75;;;-2.07;77.26
71621;BME280;59471;42.254;23.102;2022-12-20T05:03:19;97632.66;;;-2.10;77.85
71621;BME280;59471;42.254;23.102;2022-12-20T05:05:45;97622.34;;;-2.08;77.81
71621;BME280;59471;42.254;23.102;2022-12-20T05:08:10;97637.09;;;-2.15;78.77
71621;BME280;59471;42.254;23.102;2022-12-20T05:10:36;97638.22;;;-2.22;78.48
71621;BME280;59471;42.254;23.102;2022-12-20T05:13:01;97640.09;;;-2.50;79.62
71621;BME280;59471;42.254;23.102;2022-12-20T05:15:27;97645.59;;;-2.36;78.75
71621;BME280;59471;42.254;23.102;2022-12-20T05:17:53;97648.50;;;-2.22;78.94
71621;BME280;59471;42.254;23.102;2022-12-20T05:20:28;97643.34;;;-2.45;78.82
71621;BME280;59471;42.254;23.102;2022-12-20T05:22:55;97649.03;;;-2.37;78.53
71621;BME280;59471;42.254;23.102;2022-12-20T05:25:45;97632.59;;;-2.57;79.09
71621;BME280;59471;42.254;23.102;2022-12-20T05:28:30;97636.88;;;-2.32;79.15
71621;BME280;59471;42.254;23.102;2022-12-20T05:30:57;97638.31;;;-2.25;77.88
71621;BME280;59471;42.254;23.102;2022-12-20T05:33:22;97645.91;;;-2.22;77.48
71621;BME280;59471;42.254;23.102;2022-12-20T05:35:48;97651.63;;;-2.14;77.16
71621;BME280;59471;42.254;23.102;2022-12-20T05:38:14;97652.84;;;-2.00;76.96
71621;BME280;59471;42.254;23.102;2022-12-20T05:40:39;97640.69;;;-2.19;77.03
71621;BME280;59471;42.254;23.102;2022-12-20T05:43:05;97641.13;;;-2.31;77.92
71621;BME280;59471;42.254;23.102;2022-12-20T05:45:31;97655.84;;;-2.36;77.28
71621;BME280;59471;42.254;23.102;2022-12-20T05:47:57;97655.75;;;-2.33;77.21
71621;BME280;59471;42.254;23.102;2022-12-20T05:50:23;97654.38;;;-2.43;77.41
71621;BME280;59471;42.254;23.102;2022-12-20T05:52:49;97650.50;;;-2.55;76.95
71621;BME280;59471;42.254;23.102;2022-12-20T05:55:14;97652.91;;;-2.50;77.41
71621;BME280;59471;42.254;23.102;2022-12-20T05:57:40;97658.97;;;-2.53;77.56
71621;BME280;59471;42.254;23.102;2022-12-20T06:00:06;97655.53;;;-2.52;77.32
71621;BME280;59471;42.254;23.102;2022-12-20T06:02:32;97664.94;;;-2.27;77.51
71621;BME280;59471;42.254;23.102;2022-12-20T06:04:58;97647.88;;;-2.53;77.12
71621;BME280;59471;42.254;23.102;2022-12-20T06:07:24;97659.81;;;-2.52;77.33
71621;BME280;59471;42.254;23.102;2022-12-20T06:09:53;97656.28;;;-2.48;77.25
71621;BME280;59471;42.254;23.102;2022-12-20T06:12:19;97662.53;;;-2.57;77.66
71621;BME280;59471;42.254;23.102;2022-12-20T06:14:45;97664.53;;;-2.40;78.34
71621;BME280;59471;42.254;23.102;2022-12-20T06:17:10;97662.84;;;-2.41;78.00
71621;BME280;59471;42.254;23.102;2022-12-20T06:19:36;97665.44;;;-2.41;77.81
71621;BME280;59471;42.254;23.102;2022-12-20T06:22:02;97665.16;;;-2.34;77.37
71621;BME280;59471;42.254;23.102;2022-12-20T06:24:27;97664.31;;;-2.34;77.02
71621;BME280;59471;42.254;23.102;2022-12-20T06:26:53;97660.16;;;-2.88;78.41
71621;BME280;59471;42.254;23.102;2022-12-20T06:29:18;97648.41;;;-2.69;77.65
71621;BME280;59471;42.254;23.102;2022-12-20T06:31:45;97660.16;;;-2.62;77.53
71621;BME280;59471;42.254;23.102;2022-12-20T06:34:12;97653.13;;;-2.57;77.12
71621;BME280;59471;42.254;23.102;2022-12-20T06:36:38;97655.03;;;-2.62;76.66
71621;BME280;59471;42.254;23.102;2022-12-20T06:39:03;97657.00;;;-2.70;76.96
71621;BME280;59471;42.254;23.102;2022-12-20T06:41:29;97652.50;;;-2.38;77.09
71621;BME280;59471;42.254;23.102;2022-12-20T06:43:54;97635.09;;;-2.30;76.48
71621;BME280;59471;42.254;23.102;2022-12-20T06:46:20;97641.63;;;-2.21;76.80
71621;BME280;59471;42.254;23.102;2022-12-20T06:48:45;97648.59;;;-2.25;76.76
71621;BME280;59471;42.254;23.102;2022-12-20T06:51:11;97651.75;;;-2.17;76.25
71621;BME280;59471;42.254;23.102;2022-12-20T06:53:37;97641.94;;;-2.30;76.38
71621;BME280;59471;42.254;23.102;2022-12-20T06:56:02;97649.84;;;-2.37;76.98
71621;BME280;59471;42.254;23.102;2022-12-20T06:58:28;97653.06;;;-2.30;79.25
71621;BME280;59471;42.254;23.102;2022-12-20T07:00:54;97645.88;;;-2.20;76.94
71621;BME280;59471;42.254;23.102;2022-12-20T07:03:19;97651.97;;;-1.99;76.08
71621;BME280;59471;42.254;23.102;2022-12-20T07:05:50;97651.75;;;-2.17;76.34
71621;BME280;59471;42.254;23.102;2022-12-20T07:08:17;97637.69;;;-2.30;76.66
71621;BME280;59471;42.254;23.102;2022-12-20T07:10:43;97639.34;;;-2.05;75.94
71621;BME280;59471;42.254;23.102;2022-12-20T07:13:09;97633.78;;;-2.17;76.31
71621;BME280;59471;42.254;23.102;2022-12-20T07:15:35;97630.44;;;-1.95;76.07
71621;BME280;59471;42.254;23.102;2022-12-20T07:18:00;97637.13;;;-1.91;75.45
71621;BME280;59471;42.254;23.102;2022-12-20T07:20:26;97633.31;;;-1.81;74.66
71621;BME280;59471;42.254;23.102;2022-12-20T07:22:51;97629.94;;;-1.83;73.86
71621;BME280;59471;42.254;23.102;2022-12-20T07:25:17;97627.94;;;-1.75;74.36
71621;BME280;59471;42.254;23.102;2022-12-20T07:27:46;97620.91;;;-1.70;75.18
71621;BME280;59471;42.254;23.102;2022-12-20T07:30:14;97617.56;;;-1.72;73.88
71621;BME280;59471;42.254;23.102;2022-12-20T07:32:40;97629.50;;;-1.49;72.48
71621;BME280;59471;42.254;23.102;2022-12-20T07:35:06;97629.75;;;-1.55;72.67
71621;BME280;59471;42.254;23.102;2022-12-20T07:37:32;97621.28;;;-1.57;72.80
71621;BME280;59471;42.254;23.102;2022-12-20T07:39:57;97632.63;;;-1.63;73.79
71621;BME280;59471;42.254;23.102;2022-12-20T07:42:23;97622.78;;;-1.51;72.53
71621;BME280;59471;42.254;23.102;2022-12-20T07:44:49;97624.22;;;-1.44;73.40
71621;BME280;59471;42.254;23.102;2022-12-20T07:47:14;97618.97;;;-1.41;72.30
71621;BME280;59471;42.254;23.102;2022-12-20T07:49:40;97616.63;;;-1.47;72.58
71621;BME280;59471;42.254;23.102;2022-12-20T07:52:06;97619.22;;;-1.27;72.31
71621;BME280;59471;42.254;23.102;2022-12-20T07:54:37;97609.25;;;-1.12;70.98
71621;BME280;59471;42.254;23.102;2022-12-20T07:57:18;97607.03;;;-1.22;71.35
71621;BME280;59471;42.254;23.102;2022-12-20T07:59:51;97610.75;;;-1.07;70.50
71621;BME280;59471;42.254;23.102;2022-12-20T08:02:23;97618.75;;;-1.14;71.95
71621;BME280;59471;42.254;23.102;2022-12-20T08:04:53;97613.91;;;-1.00;72.22
71621;BME280;59471;42.254;23.102;2022-12-20T08:07:19;97610.81;;;-0.88;71.72
71621;BME280;59471;42.254;23.102;2022-12-20T08:09:45;97617.50;;;-0.84;71.24
71621;BME280;59471;42.254;23.102;2022-12-20T08:12:13;97618.28;;;-0.82;70.82
71621;BME280;59471;42.254;23.102;2022-12-20T08:14:40;97601.81;;;-0.78;71.49
71621;BME280;59471;42.254;23.102;2022-12-20T08:17:06;97600.72;;;-0.72;70.42
71621;BME280;59471;42.254;23.102;2022-12-20T08:19:31;97605.84;;;-0.52;70.12
71621;BME280;59471;42.254;23.102;2022-12-20T08:21:57;97606.31;;;-0.62;70.63
71621;BME280;59471;42.254;23.102;2022-12-20T08:24:22;97596.41;;;-0.51;70.10
71621;BME280;59471;42.254;23.102;2022-12-20T08:26:48;97592.84;;;-0.49;69.74
71621;BME280;59471;42.254;23.102;2022-12-20T08:29:14;97598.44;;;-0.39;69.60
71621;BME280;59471;42.254;23.102;2022-12-20T08:31:40;97601.13;;;-0.21;68.47
71621;BME280;59471;42.254;23.102;2022-12-20T08:34:07;97602.13;;;-0.26;67.17
71621;BME280;59471;42.254;23.102;2022-12-20T08:36:33;97594.16;;;-0.19;67.11
71621;BME280;59471;42.254;23.102;2022-12-20T08:39:04;97599.16;;;-0.16;68.35
71621;BME280;59471;42.254;23.102;2022-12-20T08:41:32;97603.00;;;-0.25;68.87
71621;BME280;59471;42.254;23.102;2022-12-20T08:43:58;97594.84;;;-0.16;67.57
71621;BME280;59471;42.254;23.102;2022-12-20T08:46:24;97600.59;;;-0.09;67.00
71621;BME280;59471;42.254;23.102;2022-12-20T08:48:49;97592.50;;;-0.02;68.31
71621;BME280;59471;42.254;23.102;2022-12-20T08:51:15;97584.41;;;0.06;67.57
71621;BME280;59471;42.254;23.102;2022-12-20T08:53:40;97586.38;;;0.39;65.39
71621;BME280;59471;42.254;23.102;2022-12-20T08:56:16;97580.81;;;0.29;66.15
71621;BME280;59471;42.254;23.102;2022-12-20T08:58:43;97580.25;;;0.41;65.56
71621;BME280;59471;42.254;23.102;2022-12-20T09:01:11;97584.22;;;0.30;65.93
71621;BME280;59471;42.254;23.102;2022-12-20T09:03:39;97578.38;;;0.26;67.26
71621;BME280;59471;42.254;23.102;2022-12-20T09:06:07;97574.69;;;0.32;65.53
71621;BME280;59471;42.254;23.102;2022-12-20T09:08:35;97580.53;;;0.35;66.86
71621;BME280;59471;42.254;23.102;2022-12-20T09:11:07;97579.09;;;0.47;65.38
71621;BME280;59471;42.254;23.102;2022-12-20T09:13:34;97572.97;;;0.50;65.47
71621;BME280;59471;42.254;23.102;2022-12-20T09:16:05;97567.16;;;0.63;64.76
71621;BME280;59471;42.254;23.102;2022-12-20T09:18:31;97556.22;;;0.58;64.23
71621;BME280;59471;42.254;23.102;2022-12-20T09:21:05;97560.31;;;0.45;65.27
71621;BME280;59471;42.254;23.102;2022-12-20T09:23:32;97558.41;;;0.49;65.02
71621;BME280;59471;42.254;23.102;2022-12-20T09:26:12;97553.25;;;0.66;63.79
71621;BME280;59471;42.254;23.102;2022-12-20T09:28:39;97548.25;;;0.63;63.86
71621;BME280;59471;42.254;23.102;2022-12-20T09:31:07;97541.59;;;0.59;65.31
71621;BME280;59471;42.254;23.102;2022-12-20T09:33:35;97537.75;;;0.67;64.71
71621;BME280;59471;42.254;23.102;2022-12-20T09:36:02;97536.69;;;0.89;63.71
71621;BME280;59471;42.254;23.102;2022-12-20T09:38:29;97533.13;;;0.74;63.95
71621;BME280;59471;42.254;23.102;2022-12-20T09:41:00;97533.81;;;0.95;64.07
71621;BME280;59471;42.254;23.102;2022-12-20T09:43:27;97527.34;;;1.04;63.40
71621;BME280;59471;42.254;23.102;2022-12-20T09:45:57;97513.00;;;1.15;62.73
71621;BME280;59471;42.254;23.102;2022-12-20T09:48:32;97514.00;;;0.96;62.40
71621;BME280;59471;42.254;23.102;2022-12-20T09:53:54;97505.28;;;0.98;64.63
71621;BME280;59471;42.254;23.102;2022-12-20T09:56:44;97495.59;;;1.19;64.65
71621;BME280;59471;42.254;23.102;2022-12-20T09:59:19;97498.31;;;1.33;65.03
71621;BME280;59471;42.254;23.102;2022-12-20T10:01:47;97485.66;;;1.45;64.11
71621;BME280;59471;42.254;23.102;2022-12-20T10:04:24;97479.03;;;1.56;61.76
71621;BME280;59471;42.254;23.102;2022-12-20T10:10:24;97469.38;;;1.76;63.19
71621;BME280;59471;42.254;23.102;2022-12-20T10:15:50;97462.28;;;1.95;63.30
71621;BME280;59471;42.254;23.102;2022-12-20T10:18:38;97457.19;;;2.09;62.39
71621;BME280;59471;42.254;23.102;2022-12-20T10:24:04;97451.56;;;1.87;63.80
71621;BME280;59471;42.254;23.102;2022-12-20T10:26:35;97441.94;;;1.89;63.01
71621;BME280;59471;42.254;23.102;2022-12-20T10:29:00;97438.19;;;2.11;63.70
71621;BME280;59471;42.254;23.102;2022-12-20T10:31:26;97433.00;;;2.11;62.93
71621;BME280;59471;42.254;23.102;2022-12-20T10:33:52;97425.03;;;2.15;60.10
71621;BME280;59471;42.254;23.102;2022-12-20T10:36:32;97415.00;;;2.25;59.49
71621;BME280;59471;42.254;23.102;2022-12-20T10:39:08;97402.34;;;2.04;60.60
71621;BME280;59471;42.254;23.102;2022-12-20T10:44:23;97400.09;;;2.44;62.78
71621;BME280;59471;42.254;23.102;2022-12-20T10:46:54;97390.88;;;2.54;60.19
71621;BME280;59471;42.254;23.102;2022-12-20T10:49:33;97388.63;;;2.48;60.93
71621;BME280;59471;42.254;23.102;2022-12-20T10:52:10;97380.91;;;2.63;61.71
71621;BME280;59471;42.254;23.102;2022-12-20T10:54:39;97379.16;;;2.63;61.64
71621;BME280;59471;42.254;23.102;2022-12-20T10:57:21;97370.56;;;2.63;62.72
71621;BME280;59471;42.254;23.102;2022-12-20T10:59:51;97369.47;;;2.95;62.07
71621;BME280;59471;42.254;23.102;2022-12-20T11:02:35;97369.47;;;2.95;60.75
71621;BME280;59471;42.254;23.102;2022-12-20T11:05:22;97370.75;;;3.02;60.92
71621;BME280;59471;42.254;23.102;2022-12-20T11:10:22;97362.81;;;2.91;61.96
71621;BME280;59471;42.254;23.102;2022-12-20T11:12:59;97352.81;;;2.99;61.15
71621;BME280;59471;42.254;23.102;2022-12-20T11:15:29;97354.22;;;3.05;60.61
71621;BME280;59471;42.254;23.102;2022-12-20T11:18:22;97356.41;;;3.11;60.17
71621;BME280;59471;42.254;23.102;2022-12-20T11:27:09;97335.91;;;3.49;59.92
71621;BME280;59471;42.254;23.102;2022-12-20T11:38:24;97314.97;;;3.67;56.92
71621;BME280;59471;42.254;23.102;2022-12-20T11:44:08;97307.03;;;3.29;57.45
71621;BME280;59471;42.254;23.102;2022-12-20T11:53:08;97294.34;;;3.38;57.60
71621;BME280;59471;42.254;23.102;2022-12-20T11:55:42;97284.66;;;3.55;56.66
71621;BME280;59471;42.254;23.102;2022-12-20T11:58:16;97281.19;;;3.81;55.63
71621;BME280;59471;42.254;23.102;2022-12-20T12:00:58;97275.34;;;3.65;54.91
71621;BME280;59471;42.254;23.102;2022-12-20T12:03:35;97278.53;;;3.56;53.75
71621;BME280;59471;42.254;23.102;2022-12-20T12:06:15;97288.38;;;3.51;57.13
71621;BME280;59471;42.254;23.102;2022-12-20T12:08:52;97271.84;;;3.66;55.95
71621;BME280;59471;42.254;23.102;2022-12-20T12:11:29;97272.38;;;3.71;54.89
71621;BME280;59471;42.254;23.102;2022-12-20T12:13:58;97267.31;;;3.69;54.10
71621;BME280;59471;42.254;23.102;2022-12-20T12:16:38;97269.19;;;3.80;52.94
71621;BME280;59471;42.254;23.102;2022-12-20T12:19:09;97260.75;;;3.64;55.26
71621;BME280;59471;42.254;23.102;2022-12-20T12:21:47;97262.16;;;3.82;54.22
71621;BME280;59471;42.254;23.102;2022-12-20T12:24:26;97259.63;;;3.68;54.64
71621;BME280;59471;42.254;23.102;2022-12-20T12:26:54;97259.41;;;3.71;55.86
71621;BME280;59471;42.254;23.102;2022-12-20T12:29:23;97242.34;;;3.81;53.29
71621;BME280;59471;42.254;23.102;2022-12-20T12:31:57;97254.47;;;3.93;53.17
71621;BME280;59471;42.254;23.102;2022-12-20T12:37:33;97250.31;;;3.78;53.24
71621;BME280;59471;42.254;23.102;2022-12-20T12:43:43;97244.91;;;3.81;53.48
71621;BME280;59471;42.254;23.102;2022-12-20T12:46:32;97245.94;;;3.66;56.48
71621;BME280;59471;42.254;23.102;2022-12-20T12:49:00;97244.91;;;3.81;54.05
71621;BME280;59471;42.254;23.102;2022-12-20T12:51:38;97238.22;;;3.91;52.78
71621;BME280;59471;42.254;23.102;2022-12-20T12:56:52;97237.06;;;3.95;53.04
71621;BME280;59471;42.254;23.102;2022-12-20T13:04:29;97237.31;;;4.18;52.05
71621;BME280;59471;42.254;23.102;2022-12-20T13:09:56;97230.75;;;4.00;52.68
71621;BME280;59471;42.254;23.102;2022-12-20T13:15:01;97227.88;;;4.04;52.24
71621;BME280;59471;42.254;23.102;2022-12-20T13:20:27;97223.72;;;4.02;53.75
71621;BME280;59471;42.254;23.102;2022-12-20T13:25:54;97212.38;;;3.90;53.79
71621;BME280;59471;42.254;23.102;2022-12-20T13:33:47;97214.50;;;3.98;55.13
71621;BME280;59471;42.254;23.102;2022-12-20T13:36:32;97205.78;;;3.99;53.40
71621;BME280;59471;42.254;23.102;2022-12-20T13:39:02;97196.84;;;3.77;54.62
71621;BME280;59471;42.254;23.102;2022-12-20T13:44:55;97200.78;;;3.95;54.68
71621;BME280;59471;42.254;23.102;2022-12-20T13:49:49;97193.09;;;3.94;53.43
71621;BME280;59471;42.254;23.102;2022-12-20T13:52:21;97195.47;;;3.84;54.89
71621;BME280;59471;42.254;23.102;2022-12-20T13:54:51;97198.91;;;3.72;54.20
71621;BME280;59471;42.254;23.102;2022-12-20T13:57:30;97195.88;;;3.78;56.43
71621;BME280;59471;42.254;23.102;2022-12-20T14:00:04;97192.69;;;3.75;55.76
71621;BME280;59471;42.254;23.102;2022-12-20T14:02:39;97191.88;;;3.87;54.75
71621;BME280;59471;42.254;23.102;2022-12-20T14:05:13;97193.94;;;3.82;54.61
71621;BME280;59471;42.254;23.102;2022-12-20T14:07:42;97188.03;;;3.80;55.11
71621;BME280;59471;42.254;23.102;2022-12-20T14:10:22;97193.75;;;3.72;56.53
71621;BME280;59471;42.254;23.102;2022-12-20T14:12:49;97191.22;;;3.70;56.01
71621;BME280;59471;42.254;23.102;2022-12-20T14:15:29;97186.88;;;3.71;56.07
71621;BME280;59471;42.254;23.102;2022-12-20T14:18:03;97174.03;;;3.57;57.09
71621;BME280;59471;42.254;23.102;2022-12-20T14:20:32;97174.41;;;3.51;56.64
71621;BME280;59471;42.254;23.102;2022-12-20T14:23:24;97177.41;;;3.44;56.95
71621;BME280;59471;42.254;23.102;2022-12-20T14:25:56;97176.47;;;3.45;56.63
71621;BME280;59471;42.254;23.102;2022-12-20T14:28:58;97176.88;;;3.39;57.70
71621;BME280;59471;42.254;23.102;2022-12-20T14:36:37;97165.22;;;3.19;60.25
71621;BME280;59471;42.254;23.102;2022-12-20T14:39:30;97168.28;;;3.12;60.95
71621;BME280;59471;42.254;23.102;2022-12-20T14:44:28;97167.03;;;3.05;61.24